sensor_id;sensor_type;location;lat;lon;timestamp;P1;durP1;ratioP1;P2;durP2;ratioP2
55063;SDS011;40963;52.168;21.296;2023-06-26T00:00:03;19.80;;;9.93;;
55063;SDS011;40963;52.168;21.296;2023-06-26T00:02:30;16.15;;;9.75;;
55063;SDS011;40963;52.168;21.296;2023-06-26T00:04:57;18.30;;;9.85;;
55063;SDS011;40963;52.168;21.296;2023-06-26T00:07:23;15.80;;;9.10;;
55063;SDS011;40963;52.168;21.296;2023-06-26T00:09:49;14.85;;;8.68;;
55063;SDS011;40963;52.168;21.296;2023-06-26T00:12:15;13.88;;;8.52;;
55063;SDS011;40963;52.168;21.296;2023-06-26T00:14:40;12.05;;;8.30;;
55063;SDS011;40963;52.168;21.296;2023-06-26T00:17:06;18.00;;;8.95;;
55063;SDS011;40963;52.168;21.296;2023-06-26T00:19:32;14.07;;;9.43;;
55063;SDS011;40963;52.168;21.296;2023-06-26T00:21:58;15.60;;;8.88;;
55063;SDS011;40963;52.168;21.296;2023-06-26T00:24:23;13.75;;;9.30;;
55063;SDS011;40963;52.168;21.296;2023-06-26T00:26:49;16.25;;;8.02;;
55063;SDS011;40963;52.168;21.296;2023-06-26T00:29:15;17.02;;;8.60;;
55063;SDS011;40963;52.168;21.296;2023-06-26T00:31:41;12.70;;;8.43;;
55063;SDS011;40963;52.168;21.296;2023-06-26T00:34:06;13.45;;;9.10;;
55063;SDS011;40963;52.168;21.296;2023-06-26T00:36:32;19.92;;;8.93;;
55063;SDS011;40963;52.168;21.296;2023-06-26T00:38:58;13.90;;;9.65;;
55063;SDS011;40963;52.168;21.296;2023-06-26T00:41:24;14.65;;;9.30;;
55063;SDS011;40963;52.168;21.296;2023-06-26T00:43:49;15.05;;;8.98;;
55063;SDS011;40963;52.168;21.296;2023-06-26T00:46:16;19.17;;;10.18;;
55063;SDS011;40963;52.168;21.296;2023-06-26T00:48:42;15.88;;;8.75;;
55063;SDS011;40963;52.168;21.296;2023-06-26T00:51:09;16.48;;;8.93;;
55063;SDS011;40963;52.168;21.296;2023-06-26T00:53:35;15.75;;;9.73;;
55063;SDS011;40963;52.168;21.296;2023-06-26T00:56:02;15.40;;;9.45;;
55063;SDS011;40963;52.168;21.296;2023-06-26T00:58:28;17.42;;;10.10;;
55063;SDS011;40963;52.168;21.296;2023-06-26T01:00:54;15.73;;;9.80;;
55063;SDS011;40963;52.168;21.296;2023-06-26T01:03:24;15.05;;;9.77;;
55063;SDS011;40963;52.168;21.296;2023-06-26T01:05:51;15.75;;;9.70;;
55063;SDS011;40963;52.168;21.296;2023-06-26T01:08:17;16.02;;;9.73;;
55063;SDS011;40963;52.168;21.296;2023-06-26T01:10:44;21.35;;;9.30;;
55063;SDS011;40963;52.168;21.296;2023-06-26T01:13:11;21.58;;;9.63;;
55063;SDS011;40963;52.168;21.296;2023-06-26T01:15:38;15.38;;;9.27;;
55063;SDS011;40963;52.168;21.296;2023-06-26T01:18:04;16.88;;;9.88;;
55063;SDS011;40963;52.168;21.296;2023-06-26T01:20:39;15.30;;;9.07;;
55063;SDS011;40963;52.168;21.296;2023-06-26T01:28:15;18.52;;;8.70;;
55063;SDS011;40963;52.168;21.296;2023-06-26T01:30:43;19.17;;;9.55;;
55063;SDS011;40963;52.168;21.296;2023-06-26T01:33:10;16.17;;;9.38;;
55063;SDS011;40963;52.168;21.296;2023-06-26T01:35:38;18.70;;;9.85;;
55063;SDS011;40963;52.168;21.296;2023-06-26T01:38:11;18.63;;;10.43;;
55063;SDS011;40963;52.168;21.296;2023-06-26T01:40:37;17.23;;;10.07;;
55063;SDS011;40963;52.168;21.296;2023-06-26T01:43:04;20.10;;;9.80;;
55063;SDS011;40963;52.168;21.296;2023-06-26T01:45:34;20.83;;;9.90;;
55063;SDS011;40963;52.168;21.296;2023-06-26T01:47:59;15.43;;;10.20;;
55063;SDS011;40963;52.168;21.296;2023-06-26T01:50:28;15.55;;;10.00;;
55063;SDS011;40963;52.168;21.296;2023-06-26T01:53:02;17.00;;;9.82;;
55063;SDS011;40963;52.168;21.296;2023-06-26T01:55:45;17.88;;;9.52;;
55063;SDS011;40963;52.168;21.296;2023-06-26T01:58:15;23.15;;;9.68;;
55063;SDS011;40963;52.168;21.296;2023-06-26T02:00:42;18.17;;;10.00;;
55063;SDS011;40963;52.168;21.296;2023-06-26T02:03:08;17.92;;;10.35;;
55063;SDS011;40963;52.168;21.296;2023-06-26T02:05:34;16.67;;;9.15;;
55063;SDS011;40963;52.168;21.296;2023-06-26T02:07:59;16.17;;;10.10;;
55063;SDS011;40963;52.168;21.296;2023-06-26T02:10:28;15.98;;;9.90;;
55063;SDS011;40963;52.168;21.296;2023-06-26T02:12:54;16.67;;;9.45;;
55063;SDS011;40963;52.168;21.296;2023-06-26T02:15:19;17.85;;;9.98;;
55063;SDS011;40963;52.168;21.296;2023-06-26T02:17:45;16.60;;;9.55;;
55063;SDS011;40963;52.168;21.296;2023-06-26T02:20:13;16.63;;;9.93;;
55063;SDS011;40963;52.168;21.296;2023-06-26T02:22:40;16.90;;;9.45;;
55063;SDS011;40963;52.168;21.296;2023-06-26T02:25:06;16.48;;;9.45;;
55063;SDS011;40963;52.168;21.296;2023-06-26T02:27:32;14.48;;;9.77;;
55063;SDS011;40963;52.168;21.296;2023-06-26T02:29:58;17.92;;;10.15;;
55063;SDS011;40963;52.168;21.296;2023-06-26T02:32:23;15.85;;;10.18;;
55063;SDS011;40963;52.168;21.296;2023-06-26T02:34:49;16.17;;;10.02;;
55063;SDS011;40963;52.168;21.296;2023-06-26T02:37:16;14.88;;;9.98;;
55063;SDS011;40963;52.168;21.296;2023-06-26T02:39:42;19.15;;;9.88;;
55063;SDS011;40963;52.168;21.296;2023-06-26T02:42:08;19.00;;;9.85;;
55063;SDS011;40963;52.168;21.296;2023-06-26T02:44:34;14.05;;;8.70;;
55063;SDS011;40963;52.168;21.296;2023-06-26T02:46:59;17.80;;;10.20;;
55063;SDS011;40963;52.168;21.296;2023-06-26T02:49:25;16.10;;;8.93;;
55063;SDS011;40963;52.168;21.296;2023-06-26T02:51:50;18.60;;;10.07;;
55063;SDS011;40963;52.168;21.296;2023-06-26T02:54:16;20.80;;;9.70;;
55063;SDS011;40963;52.168;21.296;2023-06-26T02:56:42;17.40;;;9.65;;
55063;SDS011;40963;52.168;21.296;2023-06-26T02:59:07;15.35;;;9.73;;
55063;SDS011;40963;52.168;21.296;2023-06-26T03:01:33;19.70;;;9.43;;
55063;SDS011;40963;52.168;21.296;2023-06-26T03:03:58;15.93;;;9.38;;
55063;SDS011;40963;52.168;21.296;2023-06-26T03:06:25;16.58;;;9.45;;
55063;SDS011;40963;52.168;21.296;2023-06-26T03:08:52;16.35;;;9.48;;
55063;SDS011;40963;52.168;21.296;2023-06-26T03:11:18;17.67;;;9.75;;
55063;SDS011;40963;52.168;21.296;2023-06-26T03:13:45;14.65;;;9.02;;
55063;SDS011;40963;52.168;21.296;2023-06-26T03:16:11;14.35;;;9.02;;
55063;SDS011;40963;52.168;21.296;2023-06-26T03:18:36;14.57;;;9.80;;
55063;SDS011;40963;52.168;21.296;2023-06-26T03:21:02;19.00;;;9.60;;
55063;SDS011;40963;52.168;21.296;2023-06-26T03:23:27;16.60;;;9.23;;
55063;SDS011;40963;52.168;21.296;2023-06-26T03:25:53;12.95;;;8.88;;
55063;SDS011;40963;52.168;21.296;2023-06-26T03:28:19;18.13;;;9.32;;
55063;SDS011;40963;52.168;21.296;2023-06-26T03:30:44;13.00;;;9.30;;
55063;SDS011;40963;52.168;21.296;2023-06-26T03:33:10;17.73;;;9.13;;
55063;SDS011;40963;52.168;21.296;2023-06-26T03:35:36;17.77;;;9.90;;
55063;SDS011;40963;52.168;21.296;2023-06-26T03:38:03;16.90;;;9.38;;
55063;SDS011;40963;52.168;21.296;2023-06-26T03:40:29;17.75;;;9.60;;
55063;SDS011;40963;52.168;21.296;2023-06-26T03:42:55;19.17;;;8.90;;
55063;SDS011;40963;52.168;21.296;2023-06-26T03:45:20;19.95;;;10.43;;
55063;SDS011;40963;52.168;21.296;2023-06-26T03:47:46;16.08;;;9.73;;
55063;SDS011;40963;52.168;21.296;2023-06-26T03:50:14;16.90;;;10.07;;
55063;SDS011;40963;52.168;21.296;2023-06-26T03:52:42;21.92;;;9.98;;
55063;SDS011;40963;52.168;21.296;2023-06-26T03:55:08;17.50;;;10.73;;
55063;SDS011;40963;52.168;21.296;2023-06-26T03:57:34;20.38;;;9.98;;
55063;SDS011;40963;52.168;21.296;2023-06-26T03:59:59;13.93;;;10.10;;
55063;SDS011;40963;52.168;21.296;2023-06-26T04:02:25;19.90;;;10.80;;
55063;SDS011;40963;52.168;21.296;2023-06-26T04:04:51;14.85;;;9.35;;
55063;SDS011;40963;52.168;21.296;2023-06-26T04:07:17;13.82;;;9.98;;
55063;SDS011;40963;52.168;21.296;2023-06-26T04:09:43;13.23;;;9.18;;
55063;SDS011;40963;52.168;21.296;2023-06-26T04:12:09;16.55;;;10.48;;
55063;SDS011;40963;52.168;21.296;2023-06-26T04:14:34;16.98;;;10.55;;
55063;SDS011;40963;52.168;21.296;2023-06-26T04:17:00;14.60;;;9.30;;
55063;SDS011;40963;52.168;21.296;2023-06-26T04:19:28;14.70;;;9.35;;
55063;SDS011;40963;52.168;21.296;2023-06-26T04:21:54;14.10;;;9.27;;
55063;SDS011;40963;52.168;21.296;2023-06-26T04:24:19;15.80;;;9.48;;
55063;SDS011;40963;52.168;21.296;2023-06-26T04:26:45;14.82;;;9.25;;
55063;SDS011;40963;52.168;21.296;2023-06-26T04:29:11;21.02;;;9.88;;
55063;SDS011;40963;52.168;21.296;2023-06-26T04:31:36;11.65;;;8.48;;
55063;SDS011;40963;52.168;21.296;2023-06-26T04:34:04;13.48;;;9.20;;
55063;SDS011;40963;52.168;21.296;2023-06-26T04:36:29;16.70;;;9.63;;
55063;SDS011;40963;52.168;21.296;2023-06-26T04:38:56;13.57;;;9.40;;
55063;SDS011;40963;52.168;21.296;2023-06-26T04:41:23;15.73;;;9.95;;
55063;SDS011;40963;52.168;21.296;2023-06-26T04:43:49;16.05;;;9.13;;
55063;SDS011;40963;52.168;21.296;2023-06-26T04:46:14;15.25;;;8.93;;
55063;SDS011;40963;52.168;21.296;2023-06-26T04:48:40;14.20;;;9.57;;
55063;SDS011;40963;52.168;21.296;2023-06-26T04:51:06;18.10;;;9.25;;
55063;SDS011;40963;52.168;21.296;2023-06-26T04:53:31;16.10;;;9.32;;
55063;SDS011;40963;52.168;21.296;2023-06-26T04:55:57;15.93;;;9.75;;
55063;SDS011;40963;52.168;21.296;2023-06-26T04:58:23;16.05;;;9.82;;
55063;SDS011;40963;52.168;21.296;2023-06-26T05:00:48;15.07;;;9.70;;
55063;SDS011;40963;52.168;21.296;2023-06-26T05:03:16;13.35;;;9.57;;
55063;SDS011;40963;52.168;21.296;2023-06-26T05:05:42;14.60;;;9.43;;
55063;SDS011;40963;52.168;21.296;2023-06-26T05:08:18;18.58;;;9.57;;
55063;SDS011;40963;52.168;21.296;2023-06-26T05:10:46;15.55;;;9.80;;
55063;SDS011;40963;52.168;21.296;2023-06-26T05:13:12;11.85;;;8.93;;
55063;SDS011;40963;52.168;21.296;2023-06-26T05:15:40;14.15;;;9.45;;
55063;SDS011;40963;52.168;21.296;2023-06-26T05:18:07;15.55;;;8.73;;
55063;SDS011;40963;52.168;21.296;2023-06-26T05:20:33;12.20;;;8.38;;
55063;SDS011;40963;52.168;21.296;2023-06-26T05:23:00;15.77;;;8.98;;
55063;SDS011;40963;52.168;21.296;2023-06-26T05:25:28;15.30;;;8.75;;
55063;SDS011;40963;52.168;21.296;2023-06-26T05:27:55;18.33;;;8.52;;
55063;SDS011;40963;52.168;21.296;2023-06-26T05:30:24;14.10;;;8.68;;
55063;SDS011;40963;52.168;21.296;2023-06-26T05:32:51;12.90;;;8.95;;
55063;SDS011;40963;52.168;21.296;2023-06-26T05:35:17;10.73;;;8.32;;
55063;SDS011;40963;52.168;21.296;2023-06-26T05:37:45;14.43;;;8.25;;
55063;SDS011;40963;52.168;21.296;2023-06-26T05:40:11;15.40;;;8.50;;
55063;SDS011;40963;52.168;21.296;2023-06-26T05:42:37;11.88;;;8.40;;
55063;SDS011;40963;52.168;21.296;2023-06-26T05:45:03;14.07;;;8.18;;
55063;SDS011;40963;52.168;21.296;2023-06-26T05:47:28;13.27;;;9.05;;
55063;SDS011;40963;52.168;21.296;2023-06-26T05:49:54;12.07;;;9.27;;
55063;SDS011;40963;52.168;21.296;2023-06-26T05:52:20;16.58;;;9.38;;
55063;SDS011;40963;52.168;21.296;2023-06-26T05:54:46;12.95;;;8.60;;
55063;SDS011;40963;52.168;21.296;2023-06-26T05:57:12;13.23;;;7.97;;
55063;SDS011;40963;52.168;21.296;2023-06-26T05:59:39;16.75;;;8.48;;
55063;SDS011;40963;52.168;21.296;2023-06-26T06:02:06;10.50;;;7.88;;
55063;SDS011;40963;52.168;21.296;2023-06-26T06:04:32;11.05;;;8.25;;
55063;SDS011;40963;52.168;21.296;2023-06-26T06:06:57;11.65;;;8.20;;
55063;SDS011;40963;52.168;21.296;2023-06-26T06:09:23;9.20;;;7.43;;
55063;SDS011;40963;52.168;21.296;2023-06-26T06:11:49;11.35;;;7.88;;
55063;SDS011;40963;52.168;21.296;2023-06-26T06:14:15;11.85;;;7.35;;
55063;SDS011;40963;52.168;21.296;2023-06-26T06:16:40;10.20;;;7.75;;
55063;SDS011;40963;52.168;21.296;2023-06-26T06:19:06;14.00;;;8.07;;
55063;SDS011;40963;52.168;21.296;2023-06-26T06:21:32;11.18;;;7.80;;
55063;SDS011;40963;52.168;21.296;2023-06-26T06:23:58;13.65;;;7.55;;
55063;SDS011;40963;52.168;21.296;2023-06-26T06:26:24;9.80;;;7.38;;
55063;SDS011;40963;52.168;21.296;2023-06-26T06:28:50;11.77;;;7.43;;
55063;SDS011;40963;52.168;21.296;2023-06-26T06:31:15;12.05;;;7.97;;
55063;SDS011;40963;52.168;21.296;2023-06-26T06:33:41;12.27;;;8.13;;
55063;SDS011;40963;52.168;21.296;2023-06-26T06:36:06;11.48;;;7.55;;
55063;SDS011;40963;52.168;21.296;2023-06-26T06:38:32;10.10;;;7.32;;
55063;SDS011;40963;52.168;21.296;2023-06-26T06:40:58;9.77;;;7.28;;
55063;SDS011;40963;52.168;21.296;2023-06-26T06:43:23;11.05;;;7.72;;
55063;SDS011;40963;52.168;21.296;2023-06-26T06:45:49;12.48;;;7.68;;
55063;SDS011;40963;52.168;21.296;2023-06-26T06:48:15;14.57;;;7.85;;
55063;SDS011;40963;52.168;21.296;2023-06-26T06:50:40;9.93;;;6.88;;
55063;SDS011;40963;52.168;21.296;2023-06-26T06:53:07;9.48;;;7.60;;
55063;SDS011;40963;52.168;21.296;2023-06-26T06:55:33;10.30;;;8.18;;
55063;SDS011;40963;52.168;21.296;2023-06-26T06:57:58;11.75;;;7.18;;
55063;SDS011;40963;52.168;21.296;2023-06-26T07:00:24;9.65;;;6.60;;
55063;SDS011;40963;52.168;21.296;2023-06-26T07:02:50;7.13;;;6.03;;
55063;SDS011;40963;52.168;21.296;2023-06-26T07:05:16;11.25;;;6.78;;
55063;SDS011;40963;52.168;21.296;2023-06-26T07:07:41;8.23;;;6.10;;
55063;SDS011;40963;52.168;21.296;2023-06-26T07:10:08;10.57;;;6.82;;
55063;SDS011;40963;52.168;21.296;2023-06-26T07:12:35;7.70;;;5.75;;
55063;SDS011;40963;52.168;21.296;2023-06-26T07:15:02;9.65;;;4.95;;
55063;SDS011;40963;52.168;21.296;2023-06-26T07:17:29;6.80;;;4.82;;
55063;SDS011;40963;52.168;21.296;2023-06-26T07:19:58;4.80;;;4.32;;
55063;SDS011;40963;52.168;21.296;2023-06-26T07:22:24;5.78;;;4.53;;
55063;SDS011;40963;52.168;21.296;2023-06-26T07:24:50;6.80;;;4.15;;
55063;SDS011;40963;52.168;21.296;2023-06-26T07:27:16;5.25;;;4.18;;
55063;SDS011;40963;52.168;21.296;2023-06-26T07:29:43;6.28;;;4.40;;
55063;SDS011;40963;52.168;21.296;2023-06-26T07:32:09;5.05;;;3.67;;
55063;SDS011;40963;52.168;21.296;2023-06-26T07:34:34;3.80;;;3.33;;
55063;SDS011;40963;52.168;21.296;2023-06-26T07:37:00;3.47;;;3.17;;
55063;SDS011;40963;52.168;21.296;2023-06-26T07:39:26;8.55;;;3.90;;
55063;SDS011;40963;52.168;21.296;2023-06-26T07:41:51;4.00;;;3.60;;
55063;SDS011;40963;52.168;21.296;2023-06-26T07:44:17;4.85;;;3.63;;
55063;SDS011;40963;52.168;21.296;2023-06-26T07:46:43;5.20;;;3.63;;
55063;SDS011;40963;52.168;21.296;2023-06-26T07:49:09;4.30;;;3.55;;
55063;SDS011;40963;52.168;21.296;2023-06-26T07:51:36;4.57;;;3.53;;
55063;SDS011;40963;52.168;21.296;2023-06-26T07:54:01;4.35;;;3.58;;
55063;SDS011;40963;52.168;21.296;2023-06-26T07:56:27;7.43;;;3.78;;
55063;SDS011;40963;52.168;21.296;2023-06-26T07:58:53;6.80;;;4.25;;
55063;SDS011;40963;52.168;21.296;2023-06-26T08:01:18;5.78;;;3.80;;
55063;SDS011;40963;52.168;21.296;2023-06-26T08:03:44;13.90;;;3.83;;
55063;SDS011;40963;52.168;21.296;2023-06-26T08:06:09;6.57;;;4.07;;
55063;SDS011;40963;52.168;21.296;2023-06-26T08:08:35;5.53;;;3.90;;
55063;SDS011;40963;52.168;21.296;2023-06-26T08:11:01;7.28;;;3.75;;
55063;SDS011;40963;52.168;21.296;2023-06-26T08:13:27;4.72;;;3.83;;
55063;SDS011;40963;52.168;21.296;2023-06-26T08:15:53;4.15;;;3.75;;
55063;SDS011;40963;52.168;21.296;2023-06-26T08:18:19;5.32;;;3.90;;
55063;SDS011;40963;52.168;21.296;2023-06-26T08:20:45;5.45;;;4.00;;
55063;SDS011;40963;52.168;21.296;2023-06-26T08:23:11;4.55;;;3.92;;
55063;SDS011;40963;52.168;21.296;2023-06-26T08:25:36;5.63;;;3.97;;
55063;SDS011;40963;52.168;21.296;2023-06-26T08:28:02;8.45;;;4.43;;
55063;SDS011;40963;52.168;21.296;2023-06-26T08:30:28;6.47;;;4.45;;
55063;SDS011;40963;52.168;21.296;2023-06-26T08:32:54;7.25;;;4.38;;
55063;SDS011;40963;52.168;21.296;2023-06-26T08:35:20;4.18;;;3.70;;
55063;SDS011;40963;52.168;21.296;2023-06-26T08:37:46;9.63;;;4.15;;
55063;SDS011;40963;52.168;21.296;2023-06-26T08:40:12;6.38;;;4.40;;
55063;SDS011;40963;52.168;21.296;2023-06-26T08:42:41;6.07;;;3.85;;
55063;SDS011;40963;52.168;21.296;2023-06-26T08:45:07;4.40;;;3.67;;
55063;SDS011;40963;52.168;21.296;2023-06-26T08:47:33;6.78;;;3.60;;
55063;SDS011;40963;52.168;21.296;2023-06-26T08:52:30;3.97;;;3.42;;
55063;SDS011;40963;52.168;21.296;2023-06-26T08:55:01;4.75;;;3.67;;
55063;SDS011;40963;52.168;21.296;2023-06-26T08:57:27;7.90;;;3.90;;
55063;SDS011;40963;52.168;21.296;2023-06-26T08:59:55;6.20;;;3.83;;
55063;SDS011;40963;52.168;21.296;2023-06-26T09:02:21;5.97;;;3.63;;
55063;SDS011;40963;52.168;21.296;2023-06-26T09:04:47;6.28;;;3.60;;
55063;SDS011;40963;52.168;21.296;2023-06-26T09:07:16;3.75;;;3.30;;
55063;SDS011;40963;52.168;21.296;2023-06-26T09:09:42;3.88;;;3.55;;
55063;SDS011;40963;52.168;21.296;2023-06-26T09:12:09;5.20;;;3.88;;
55063;SDS011;40963;52.168;21.296;2023-06-26T09:14:36;8.90;;;3.42;;
55063;SDS011;40963;52.168;21.296;2023-06-26T09:17:03;4.70;;;3.95;;
55063;SDS011;40963;52.168;21.296;2023-06-26T09:19:28;4.28;;;3.50;;
55063;SDS011;40963;52.168;21.296;2023-06-26T09:21:54;10.70;;;3.50;;
55063;SDS011;40963;52.168;21.296;2023-06-26T09:24:21;5.00;;;3.45;;
55063;SDS011;40963;52.168;21.296;2023-06-26T09:26:47;4.30;;;3.20;;
55063;SDS011;40963;52.168;21.296;2023-06-26T09:29:14;5.35;;;3.67;;
55063;SDS011;40963;52.168;21.296;2023-06-26T09:31:40;4.55;;;3.33;;
55063;SDS011;40963;52.168;21.296;2023-06-26T09:34:06;5.07;;;3.28;;
55063;SDS011;40963;52.168;21.296;2023-06-26T09:36:32;3.85;;;3.20;;
55063;SDS011;40963;52.168;21.296;2023-06-26T09:39:08;8.73;;;3.85;;
55063;SDS011;40963;52.168;21.296;2023-06-26T09:41:36;3.85;;;3.42;;
55063;SDS011;40963;52.168;21.296;2023-06-26T09:44:05;6.32;;;3.50;;
55063;SDS011;40963;52.168;21.296;2023-06-26T09:46:32;6.30;;;3.80;;
55063;SDS011;40963;52.168;21.296;2023-06-26T09:48:59;5.40;;;4.07;;
55063;SDS011;40963;52.168;21.296;2023-06-26T09:51:30;4.13;;;3.60;;
55063;SDS011;40963;52.168;21.296;2023-06-26T09:53:56;4.55;;;3.65;;
55063;SDS011;40963;52.168;21.296;2023-06-26T09:56:22;4.85;;;3.55;;
55063;SDS011;40963;52.168;21.296;2023-06-26T09:58:48;6.90;;;3.55;;
55063;SDS011;40963;52.168;21.296;2023-06-26T10:01:14;11.40;;;3.88;;
55063;SDS011;40963;52.168;21.296;2023-06-26T10:03:40;4.20;;;3.60;;
55063;SDS011;40963;52.168;21.296;2023-06-26T10:06:06;5.18;;;3.22;;
55063;SDS011;40963;52.168;21.296;2023-06-26T10:08:34;9.52;;;3.80;;
55063;SDS011;40963;52.168;21.296;2023-06-26T10:11:02;6.10;;;3.50;;
55063;SDS011;40963;52.168;21.296;2023-06-26T10:13:30;5.40;;;3.70;;
55063;SDS011;40963;52.168;21.296;2023-06-26T10:15:59;5.15;;;3.10;;
55063;SDS011;40963;52.168;21.296;2023-06-26T10:18:26;30.70;;;4.30;;
55063;SDS011;40963;52.168;21.296;2023-06-26T10:20:56;7.93;;;3.38;;
55063;SDS011;40963;52.168;21.296;2023-06-26T10:23:23;4.15;;;3.28;;
55063;SDS011;40963;52.168;21.296;2023-06-26T10:25:52;3.88;;;3.53;;
55063;SDS011;40963;52.168;21.296;2023-06-26T10:28:20;7.55;;;3.65;;
55063;SDS011;40963;52.168;21.296;2023-06-26T10:30:48;4.85;;;3.72;;
55063;SDS011;40963;52.168;21.296;2023-06-26T10:33:16;5.90;;;3.08;;
55063;SDS011;40963;52.168;21.296;2023-06-26T10:35:43;4.95;;;3.60;;
55063;SDS011;40963;52.168;21.296;2023-06-26T10:38:09;7.70;;;3.30;;
55063;SDS011;40963;52.168;21.296;2023-06-26T10:40:45;4.20;;;2.90;;
55063;SDS011;40963;52.168;21.296;2023-06-26T10:43:13;5.85;;;2.97;;
55063;SDS011;40963;52.168;21.296;2023-06-26T10:45:46;3.45;;;3.10;;
55063;SDS011;40963;52.168;21.296;2023-06-26T10:48:18;5.07;;;3.08;;
55063;SDS011;40963;52.168;21.296;2023-06-26T10:50:47;5.07;;;3.28;;
55063;SDS011;40963;52.168;21.296;2023-06-26T10:56:02;5.43;;;3.20;;
55063;SDS011;40963;52.168;21.296;2023-06-26T11:03:46;4.50;;;3.17;;
55063;SDS011;40963;52.168;21.296;2023-06-26T11:06:24;4.18;;;3.22;;
55063;SDS011;40963;52.168;21.296;2023-06-26T11:08:50;4.75;;;3.40;;
55063;SDS011;40963;52.168;21.296;2023-06-26T11:11:21;4.47;;;3.42;;
55063;SDS011;40963;52.168;21.296;2023-06-26T11:13:47;4.82;;;3.55;;
55063;SDS011;40963;52.168;21.296;2023-06-26T11:16:13;6.05;;;3.33;;
55063;SDS011;40963;52.168;21.296;2023-06-26T11:18:40;5.75;;;3.17;;
55063;SDS011;40963;52.168;21.296;2023-06-26T11:21:10;5.13;;;3.28;;
55063;SDS011;40963;52.168;21.296;2023-06-26T11:23:39;7.55;;;3.30;;
55063;SDS011;40963;52.168;21.296;2023-06-26T11:26:18;8.75;;;3.13;;
55063;SDS011;40963;52.168;21.296;2023-06-26T11:28:49;6.45;;;3.15;;
55063;SDS011;40963;52.168;21.296;2023-06-26T11:31:26;7.00;;;3.20;;
55063;SDS011;40963;52.168;21.296;2023-06-26T11:33:53;3.85;;;3.45;;
55063;SDS011;40963;52.168;21.296;2023-06-26T11:36:19;3.95;;;3.30;;
55063;SDS011;40963;52.168;21.296;2023-06-26T11:38:52;3.95;;;2.60;;
55063;SDS011;40963;52.168;21.296;2023-06-26T11:41:21;5.00;;;2.80;;
55063;SDS011;40963;52.168;21.296;2023-06-26T11:43:47;3.15;;;2.78;;
55063;SDS011;40963;52.168;21.296;2023-06-26T11:46:16;3.28;;;2.90;;
55063;SDS011;40963;52.168;21.296;2023-06-26T11:48:43;8.18;;;3.15;;
55063;SDS011;40963;52.168;21.296;2023-06-26T11:51:08;10.57;;;3.58;;
55063;SDS011;40963;52.168;21.296;2023-06-26T11:53:39;4.38;;;3.33;;
55063;SDS011;40963;52.168;21.296;2023-06-26T11:56:09;6.47;;;3.42;;
55063;SDS011;40963;52.168;21.296;2023-06-26T11:58:35;5.10;;;3.22;;
55063;SDS011;40963;52.168;21.296;2023-06-26T12:01:01;4.80;;;3.10;;
55063;SDS011;40963;52.168;21.296;2023-06-26T12:03:27;7.20;;;3.63;;
55063;SDS011;40963;52.168;21.296;2023-06-26T12:05:54;4.07;;;3.05;;
55063;SDS011;40963;52.168;21.296;2023-06-26T12:08:20;6.13;;;3.28;;
55063;SDS011;40963;52.168;21.296;2023-06-26T12:10:46;4.30;;;3.00;;
55063;SDS011;40963;52.168;21.296;2023-06-26T12:13:12;3.88;;;3.42;;
55063;SDS011;40963;52.168;21.296;2023-06-26T12:15:38;3.10;;;2.72;;
55063;SDS011;40963;52.168;21.296;2023-06-26T12:18:07;3.92;;;3.28;;
55063;SDS011;40963;52.168;21.296;2023-06-26T12:20:39;3.90;;;3.03;;
55063;SDS011;40963;52.168;21.296;2023-06-26T12:23:11;5.93;;;3.45;;
55063;SDS011;40963;52.168;21.296;2023-06-26T12:25:37;4.88;;;2.85;;
55063;SDS011;40963;52.168;21.296;2023-06-26T12:28:03;3.10;;;2.80;;
55063;SDS011;40963;52.168;21.296;2023-06-26T12:30:28;9.05;;;3.17;;
55063;SDS011;40963;52.168;21.296;2023-06-26T12:32:54;4.22;;;3.35;;
55063;SDS011;40963;52.168;21.296;2023-06-26T12:35:20;6.00;;;3.15;;
55063;SDS011;40963;52.168;21.296;2023-06-26T12:37:46;9.82;;;2.97;;
55063;SDS011;40963;52.168;21.296;2023-06-26T12:40:18;4.22;;;3.20;;
55063;SDS011;40963;52.168;21.296;2023-06-26T12:42:47;3.50;;;3.20;;
55063;SDS011;40963;52.168;21.296;2023-06-26T12:45:12;3.40;;;2.80;;
55063;SDS011;40963;52.168;21.296;2023-06-26T12:47:38;3.55;;;3.13;;
55063;SDS011;40963;52.168;21.296;2023-06-26T12:50:06;6.35;;;3.10;;
55063;SDS011;40963;52.168;21.296;2023-06-26T12:52:32;4.28;;;2.72;;
55063;SDS011;40963;52.168;21.296;2023-06-26T12:54:57;2.60;;;2.38;;
55063;SDS011;40963;52.168;21.296;2023-06-26T12:57:23;3.10;;;2.80;;
55063;SDS011;40963;52.168;21.296;2023-06-26T12:59:50;5.75;;;2.95;;
55063;SDS011;40963;52.168;21.296;2023-06-26T13:02:15;2.95;;;2.58;;
55063;SDS011;40963;52.168;21.296;2023-06-26T13:04:41;2.50;;;2.30;;
55063;SDS011;40963;52.168;21.296;2023-06-26T13:07:09;4.38;;;2.35;;
55063;SDS011;40963;52.168;21.296;2023-06-26T13:09:35;5.80;;;2.65;;
55063;SDS011;40963;52.168;21.296;2023-06-26T13:12:02;5.35;;;2.60;;
55063;SDS011;40963;52.168;21.296;2023-06-26T13:14:29;15.10;;;3.20;;
55063;SDS011;40963;52.168;21.296;2023-06-26T13:16:54;9.35;;;2.45;;
55063;SDS011;40963;52.168;21.296;2023-06-26T13:19:20;4.53;;;2.53;;
55063;SDS011;40963;52.168;21.296;2023-06-26T13:21:46;4.35;;;2.60;;
55063;SDS011;40963;52.168;21.296;2023-06-26T13:24:12;3.10;;;2.65;;
55063;SDS011;40963;52.168;21.296;2023-06-26T13:26:38;5.18;;;2.67;;
55063;SDS011;40963;52.168;21.296;2023-06-26T13:29:04;5.10;;;2.90;;
55063;SDS011;40963;52.168;21.296;2023-06-26T13:31:30;3.90;;;2.47;;
55063;SDS011;40963;52.168;21.296;2023-06-26T13:33:57;65.07;;;4.85;;
55063;SDS011;40963;52.168;21.296;2023-06-26T13:36:23;7.90;;;2.72;;
55063;SDS011;40963;52.168;21.296;2023-06-26T13:38:49;3.10;;;2.50;;
55063;SDS011;40963;52.168;21.296;2023-06-26T13:41:20;2.50;;;2.30;;
55063;SDS011;40963;52.168;21.296;2023-06-26T13:43:49;5.05;;;2.70;;
55063;SDS011;40963;52.168;21.296;2023-06-26T13:46:15;2.90;;;2.70;;
55063;SDS011;40963;52.168;21.296;2023-06-26T13:48:42;3.45;;;2.45;;
55063;SDS011;40963;52.168;21.296;2023-06-26T13:51:08;3.08;;;2.63;;
55063;SDS011;40963;52.168;21.296;2023-06-26T13:53:33;3.38;;;2.40;;
55063;SDS011;40963;52.168;21.296;2023-06-26T13:55:59;3.20;;;2.38;;
55063;SDS011;40963;52.168;21.296;2023-06-26T13:58:25;2.60;;;2.40;;
55063;SDS011;40963;52.168;21.296;2023-06-26T14:00:52;3.13;;;2.83;;
55063;SDS011;40963;52.168;21.296;2023-06-26T14:03:18;4.78;;;2.70;;
55063;SDS011;40963;52.168;21.296;2023-06-26T14:05:44;2.85;;;2.40;;
55063;SDS011;40963;52.168;21.296;2023-06-26T14:08:09;4.00;;;2.80;;
55063;SDS011;40963;52.168;21.296;2023-06-26T14:10:35;4.13;;;2.95;;
55063;SDS011;40963;52.168;21.296;2023-06-26T14:13:02;8.23;;;2.67;;
55063;SDS011;40963;52.168;21.296;2023-06-26T14:15:28;6.10;;;3.25;;
55063;SDS011;40963;52.168;21.296;2023-06-26T14:17:54;4.97;;;2.60;;
55063;SDS011;40963;52.168;21.296;2023-06-26T14:20:20;6.60;;;2.70;;
55063;SDS011;40963;52.168;21.296;2023-06-26T14:22:47;3.53;;;2.75;;
55063;SDS011;40963;52.168;21.296;2023-06-26T14:25:13;7.00;;;3.00;;
55063;SDS011;40963;52.168;21.296;2023-06-26T14:27:40;3.15;;;2.85;;
55063;SDS011;40963;52.168;21.296;2023-06-26T14:30:06;3.78;;;3.00;;
55063;SDS011;40963;52.168;21.296;2023-06-26T14:32:35;3.63;;;2.65;;
55063;SDS011;40963;52.168;21.296;2023-06-26T14:35:01;3.35;;;3.05;;
55063;SDS011;40963;52.168;21.296;2023-06-26T14:37:28;3.40;;;3.10;;
55063;SDS011;40963;52.168;21.296;2023-06-26T14:39:55;6.90;;;2.75;;